createdAt,value
2022-09-30T00:04:58.417Z,11.75
2022-09-30T00:10:01.372Z,10.27
2022-09-30T00:15:06.486Z,11.43
2022-09-30T00:20:10.639Z,12.57
2022-09-30T00:25:13.542Z,11.25
2022-09-30T00:30:17.722Z,11.75
2022-09-30T00:35:22.613Z,12.10
2022-09-30T00:40:25.575Z,13.32
2022-09-30T00:45:30.833Z,12.27
2022-09-30T00:50:42.343Z,13.35
2022-09-30T00:55:51.383Z,12.30
2022-09-30T01:00:56.117Z,13.63
2022-09-30T01:05:59.032Z,12.32
2022-09-30T01:11:07.275Z,15.65
2022-09-30T01:16:31.172Z,16.15
2022-09-30T01:22:01.748Z,17.52
2022-09-30T01:27:23.745Z,17.73
2022-09-30T01:32:42.197Z,16.55
2022-09-30T01:37:57.368Z,18.00
2022-09-30T01:43:11.070Z,18.30
2022-09-30T01:48:22.202Z,17.55
2022-09-30T01:53:32.639Z,19.95
2022-09-30T01:58:43.369Z,17.23
2022-09-30T02:03:52.697Z,20.67
2022-09-30T02:09:00.584Z,21.00
2022-09-30T02:14:09.673Z,20.88
2022-09-30T02:19:20.511Z,20.17
2022-09-30T02:24:26.255Z,21.90
2022-09-30T02:29:36.723Z,21.88
2022-09-30T02:34:45.473Z,22.40
2022-09-30T02:39:53.796Z,19.27
2022-09-30T02:45:02.115Z,21.20
2022-09-30T02:50:13.954Z,22.33
2022-09-30T02:55:22.723Z,18.80
2022-09-30T03:00:25.862Z,16.98
2022-09-30T03:05:30.197Z,19.70
2022-09-30T03:10:34.503Z,18.27
2022-09-30T03:15:48.279Z,18.52
2022-09-30T03:21:09.479Z,17.00
2022-09-30T03:26:23.076Z,18.52
2022-09-30T03:31:35.341Z,19.45
2022-09-30T03:36:44.489Z,20.85
2022-09-30T03:41:54.116Z,22.67
2022-09-30T03:47:01.519Z,22.63
2022-09-30T03:52:10.127Z,22.60
2022-09-30T03:57:14.996Z,19.88
2022-09-30T04:02:17.817Z,24.08
2022-09-30T04:07:21.947Z,20.15
2022-09-30T04:12:24.706Z,20.30
2022-09-30T04:17:27.466Z,19.63
2022-09-30T04:22:31.874Z,19.80
2022-09-30T04:27:34.697Z,21.88
2022-09-30T04:32:37.511Z,23.33
2022-09-30T04:37:44.458Z,21.73
2022-09-30T04:42:47.666Z,23.27
2022-09-30T04:47:50.809Z,21.80
2022-09-30T04:52:55.910Z,23.00
2022-09-30T04:57:58.672Z,25.73
2022-09-30T05:03:01.740Z,23.27
2022-09-30T05:08:07.105Z,20.73
2022-09-30T05:13:10.399Z,23.42
2022-09-30T05:18:13.211Z,22.42
2022-09-30T05:23:20.074Z,24.88
2022-09-30T05:28:23.130Z,21.08
2022-09-30T05:33:25.970Z,23.02
2022-09-30T05:38:30.568Z,23.00
2022-09-30T05:43:33.488Z,24.65
2022-09-30T05:48:36.382Z,22.83
2022-09-30T05:53:41.195Z,25.02
2022-09-30T05:58:44.064Z,24.95
2022-09-30T06:03:47.984Z,23.88
2022-09-30T06:08:52.223Z,24.77
2022-09-30T06:13:55.048Z,24.15
2022-09-30T06:18:57.829Z,19.52
2022-09-30T06:24:02.308Z,18.83
2022-09-30T06:29:05.130Z,24.80
2022-09-30T06:34:08.333Z,20.77
2022-09-30T06:39:13.862Z,14.90
2022-09-30T06:44:16.756Z,11.70
2022-09-30T06:49:19.521Z,10.15
2022-09-30T06:54:23.911Z,6.50
2022-09-30T06:59:27.117Z,9.02
2022-09-30T07:04:30.072Z,5.63
2022-09-30T07:09:34.314Z,6.88
2022-09-30T07:14:37.438Z,8.10
2022-09-30T07:19:40.323Z,8.20
2022-09-30T07:24:44.502Z,6.93
2022-09-30T07:30:08.245Z,6.82
2022-09-30T07:35:10.663Z,8.32
2022-09-30T07:40:15.366Z,10.77
2022-09-30T07:45:19.397Z,8.40
2022-09-30T07:50:22.412Z,10.23
2022-09-30T07:55:26.613Z,11.05
2022-09-30T08:00:42.251Z,12.32
2022-09-30T08:05:45.820Z,12.93
2022-09-30T08:10:50.146Z,14.95
2022-09-30T08:15:52.925Z,12.15
2022-09-30T08:20:55.839Z,46.92
2022-09-30T08:26:04.547Z,41.50
2022-09-30T08:31:09.530Z,22.52
2022-09-30T08:36:14.246Z,11.10
2022-09-30T08:41:35.266Z,11.95
2022-09-30T08:46:47.994Z,17.00
2022-09-30T08:51:52.929Z,19.45
2022-09-30T08:56:58.275Z,14.75
2022-09-30T09:02:12.023Z,8.00
2022-09-30T09:07:27.139Z,8.35
2022-09-30T09:12:42.529Z,8.57
2022-09-30T09:18:24.691Z,7.63
2022-09-30T09:23:32.064Z,7.50
2022-09-30T09:28:43.810Z,7.05
2022-09-30T09:33:47.183Z,6.70
2022-09-30T09:39:04.493Z,8.68
2022-09-30T09:44:16.093Z,5.45
2022-09-30T09:49:32.943Z,7.53
2022-09-30T09:54:41.264Z,5.88
2022-09-30T09:59:58.488Z,8.98
2022-09-30T10:05:03.422Z,10.98
2022-09-30T10:10:23.345Z,51.00
2022-09-30T10:15:28.118Z,8.57
2022-09-30T10:20:33.246Z,6.55
2022-09-30T10:25:36.581Z,16.67
2022-09-30T10:30:47.809Z,10.40
2022-09-30T10:35:55.589Z,19.67
2022-09-30T10:40:59.681Z,31.13
2022-09-30T10:46:25.312Z,10.02
2022-09-30T10:51:37.534Z,4.47
2022-09-30T10:56:44.262Z,5.10
2022-09-30T11:01:57.348Z,3.92
2022-09-30T11:07:11.493Z,3.53
2022-09-30T11:12:21.540Z,4.57
2022-09-30T11:17:30.709Z,4.40
2022-09-30T11:22:43.024Z,3.90
2022-09-30T11:28:01.927Z,5.13
2022-09-30T11:33:30.250Z,4.18
2022-09-30T11:38:51.331Z,3.45
2022-09-30T11:44:05.577Z,2.53
2022-09-30T11:49:25.707Z,6.40
2022-09-30T11:54:43.117Z,3.17
2022-09-30T11:59:51.718Z,3.28
2022-09-30T12:05:00.663Z,5.40
2022-09-30T12:10:09.085Z,4.20
2022-09-30T12:15:17.706Z,5.88
2022-09-30T12:20:27.754Z,4.28
2022-09-30T12:25:37.742Z,7.68
2022-09-30T12:30:41.210Z,8.02
2022-09-30T12:36:05.451Z,8.02
2022-09-30T12:41:25.094Z,5.07
2022-09-30T12:46:48.718Z,7.80
2022-09-30T12:51:58.188Z,6.38
2022-09-30T12:57:03.977Z,6.15
2022-09-30T13:02:09.767Z,6.10
2022-09-30T13:07:21.843Z,6.78
2022-09-30T13:12:30.603Z,7.03
2022-09-30T13:17:36.176Z,5.35
2022-09-30T13:22:57.419Z,5.78
2022-09-30T13:28:30.099Z,5.78
2022-09-30T13:33:44.361Z,7.32
2022-09-30T13:39:07.830Z,8.10
2022-09-30T13:44:17.870Z,5.15
2022-09-30T13:49:25.406Z,6.30
2022-09-30T13:54:35.768Z,6.67
2022-09-30T13:59:49.139Z,7.28
2022-09-30T14:05:06.559Z,8.57
2022-09-30T14:10:28.987Z,6.63
2022-09-30T14:15:49.605Z,7.35
2022-09-30T14:21:06.573Z,12.25
2022-09-30T14:26:30.810Z,9.30
2022-09-30T14:31:33.980Z,9.77
2022-09-30T14:36:36.796Z,13.75
2022-09-30T14:41:42.515Z,7.47
2022-09-30T14:46:49.295Z,10.05
2022-09-30T14:51:52.035Z,11.07
2022-09-30T14:56:56.947Z,10.70
2022-09-30T15:02:01.679Z,9.32
2022-09-30T15:07:07.163Z,9.38
2022-09-30T15:12:15.208Z,8.55
2022-09-30T15:17:19.821Z,17.45
2022-09-30T15:22:23.961Z,9.40
2022-09-30T15:27:32.974Z,7.63
2022-09-30T15:32:37.079Z,7.45
2022-09-30T15:37:40.014Z,8.02
2022-09-30T15:42:47.694Z,7.05
2022-09-30T15:47:56.752Z,6.75
2022-09-30T15:53:05.052Z,10.73
2022-09-30T16:03:37.042Z,7.15
2022-09-30T16:08:44.915Z,12.30
2022-09-30T16:13:50.070Z,10.27
2022-09-30T16:18:54.774Z,14.57
2022-09-30T16:23:57.807Z,9.40
2022-09-30T16:29:08.062Z,9.70
2022-09-30T16:34:20.613Z,15.70
2022-09-30T16:39:23.430Z,10.77
2022-09-30T16:44:27.642Z,9.93
2022-09-30T16:49:30.506Z,10.98
2022-09-30T16:54:33.402Z,10.20
2022-09-30T16:59:37.491Z,11.57
2022-09-30T17:04:40.278Z,12.50
2022-09-30T17:09:44.444Z,13.75
2022-09-30T17:14:49.064Z,16.45
2022-09-30T17:19:51.953Z,11.68
2022-09-30T17:24:54.723Z,12.35
2022-09-30T17:29:58.938Z,11.70
2022-09-30T17:35:01.737Z,20.70
2022-09-30T17:40:25.703Z,13.55
2022-09-30T17:45:29.951Z,19.30
2022-09-30T17:50:34.139Z,14.00
2022-09-30T17:55:36.973Z,13.25
2022-09-30T18:00:41.517Z,11.43
2022-09-30T18:05:45.524Z,15.60
2022-09-30T18:10:48.382Z,10.95
2022-09-30T18:15:52.586Z,14.73
2022-09-30T18:20:55.350Z,13.30
2022-09-30T18:25:58.479Z,14.77
2022-09-30T18:31:08.022Z,13.50
2022-09-30T18:36:10.806Z,11.93
2022-09-30T18:41:13.810Z,13.65
2022-09-30T18:46:20.459Z,16.30
2022-09-30T18:51:24.944Z,10.40
2022-09-30T18:56:31.249Z,10.63
2022-09-30T19:01:36.452Z,13.27
2022-09-30T19:06:40.910Z,12.32
2022-09-30T19:11:46.196Z,9.93
2022-09-30T19:16:51.227Z,10.35
2022-09-30T19:21:55.219Z,8.93
2022-09-30T19:26:58.209Z,13.95
2022-09-30T19:32:02.898Z,10.15
2022-09-30T19:37:07.558Z,10.18
2022-09-30T19:42:15.057Z,9.13
2022-09-30T19:47:19.783Z,8.48
2022-09-30T19:52:22.787Z,11.07
2022-09-30T19:57:25.733Z,8.57
2022-09-30T20:02:30.445Z,8.35
2022-09-30T20:07:34.731Z,9.70
2022-09-30T20:12:37.505Z,10.70
2022-09-30T20:17:41.753Z,8.75
2022-09-30T20:22:44.662Z,8.02
2022-09-30T20:27:51.966Z,8.23
2022-09-30T20:32:56.650Z,9.13
2022-09-30T20:37:59.421Z,7.68
2022-09-30T20:43:04.127Z,8.75
2022-09-30T20:48:09.435Z,6.68
2022-09-30T20:53:13.888Z,11.85
2022-09-30T20:58:16.723Z,6.63
2022-09-30T21:03:21.530Z,8.48
2022-09-30T21:08:24.307Z,8.00
2022-09-30T21:13:27.111Z,6.60
2022-09-30T21:18:31.650Z,6.60
2022-09-30T21:23:35.586Z,8.95
2022-09-30T21:28:38.442Z,9.55
2022-09-30T21:33:43.951Z,9.02
2022-09-30T21:38:46.758Z,8.73
2022-09-30T21:43:49.877Z,6.60
2022-09-30T21:49:05.205Z,7.57
2022-09-30T21:54:13.691Z,10.73
2022-09-30T21:59:17.183Z,9.15
2022-09-30T22:04:21.293Z,9.80
2022-09-30T22:09:24.173Z,10.18
2022-09-30T22:14:27.058Z,7.95
2022-09-30T22:19:31.237Z,8.73
2022-09-30T22:24:36.842Z,8.85
2022-09-30T22:29:39.571Z,8.52
2022-09-30T22:35:00.931Z,6.78
2022-09-30T22:40:03.685Z,9.43
2022-09-30T22:45:07.645Z,6.15
2022-09-30T22:50:11.797Z,7.72
2022-09-30T22:55:15.046Z,7.15
2022-09-30T23:00:18.067Z,7.07
2022-09-30T23:05:22.210Z,9.73
2022-09-30T23:10:25.312Z,6.30
2022-09-30T23:15:28.127Z,6.30
2022-09-30T23:20:32.455Z,5.85
2022-09-30T23:25:35.231Z,6.38
2022-09-30T23:30:38.221Z,7.18
2022-09-30T23:35:47.108Z,5.38
2022-09-30T23:40:50.428Z,4.78
2022-09-30T23:45:53.260Z,5.85
2022-09-30T23:50:57.489Z,5.25
2022-09-30T23:56:03.018Z,7.25
